Time;durP1;ratioP1;P1;durP2;ratioP2;P2;SDS_P1;SDS_P2;PMS_P1;PMS_P2;Temp;Humidity;BMP_temperature;BMP_pressure;BME280_temperature;BME280_humidity;BME280_pressure;Samples;Min_cycle;Max_cycle;Signal;HPM_P1;HPM_P2
2022/04/28 00:00:14;;;;;;;9.43;7.40;;;;;;;19.11;37.88;100347.50;341826;28;1766;-69
2022/04/28 00:00:26;;;;;;;9.90;7.30;;;;;;;19.12;37.88;100343.09;341030;28;1862;-69
2022/04/28 00:00:40;;;;;;;10.30;7.40;;;;;;;19.12;37.81;100343.94;342172;28;1777;-69
2022/04/28 00:00:53;;;;;;;11.25;7.70;;;;;;;19.14;37.93;100336.78;341673;29;1157;-70
2022/04/28 00:01:05;;;;;;;11.13;7.93;;;;;;;19.19;37.75;100349.69;340966;29;1207;-70
2022/04/28 00:01:18;;;;;;;9.90;7.32;;;;;;;19.22;37.74;100346.06;341199;29;1282;-70
2022/04/28 00:01:30;;;;;;;10.13;7.32;;;;;;;19.23;37.74;100345.94;341037;28;1823;-69
2022/04/28 00:01:42;;;;;;;10.43;7.60;;;;;;;19.26;37.47;100350.22;341362;28;1982;-69
2022/04/28 00:01:55;;;;;;;10.70;7.75;;;;;;;19.25;37.58;100343.22;342665;28;1070;-69
2022/04/28 00:02:07;;;;;;;9.45;7.72;;;;;;;19.22;37.69;100353.97;342432;28;1102;-69
2022/04/28 00:02:19;;;;;;;9.27;7.72;;;;;;;19.22;37.75;100353.97;342259;28;1118;-69
2022/04/28 00:02:33;;;;;;;9.63;7.47;;;;;;;19.21;37.75;100349.59;340978;28;2128;-69
2022/04/28 00:02:47;;;;;;;10.82;7.47;;;;;;;19.23;37.65;100342.47;341392;28;1901;-70
2022/04/28 00:03:00;;;;;;;12.07;8.07;;;;;;;19.24;37.75;100352.09;342105;28;1891;-70
2022/04/28 00:03:12;;;;;;;10.98;8.02;;;;;;;19.20;37.75;100345.28;341634;28;1125;-69
2022/04/28 00:03:25;;;;;;;9.77;7.50;;;;;;;19.20;37.84;100348.78;342362;28;1890;-68
2022/04/28 00:03:37;;;;;;;9.70;7.25;;;;;;;19.21;37.63;100342.53;342420;28;1805;-69
2022/04/28 00:03:49;;;;;;;10.40;7.53;;;;;;;19.24;37.82;100347.66;341715;28;1194;-69
2022/04/28 00:04:01;;;;;;;10.52;7.72;;;;;;;19.25;37.78;100346.69;341426;28;1667;-69
2022/04/28 00:04:13;;;;;;;11.55;8.18;;;;;;;19.26;37.62;100350.22;342299;28;1225;-70
2022/04/28 00:04:25;;;;;;;11.30;8.30;;;;;;;19.27;37.58;100349.25;342087;28;2006;-69
2022/04/28 00:04:37;;;;;;;10.82;7.88;;;;;;;19.30;37.63;100346.47;342132;28;1711;-70
2022/04/28 00:04:50;;;;;;;9.27;7.55;;;;;;;19.30;37.72;100346.47;342030;28;1305;-70
2022/04/28 00:05:04;;;;;;;9.30;7.90;;;;;;;19.28;38.11;100348.34;342108;28;1146;-70
2022/04/28 00:05:17;;;;;;;10.30;8.30;;;;;;;19.28;37.80;100348.34;342202;28;1065;-69
2022/04/28 00:05:29;;;;;;;10.35;8.23;;;;;;;19.29;37.87;100344.75;341986;28;1775;-69
2022/04/28 00:05:42;;;;;;;11.02;8.10;;;;;;;19.28;37.87;100343.06;342534;28;2131;-69
2022/04/28 00:05:54;;;;;;;11.55;8.00;;;;;;;19.26;37.90;100344.94;342612;28;1427;-70
2022/04/28 00:06:06;;;;;;;12.55;8.20;;;;;;;19.26;38.12;100344.94;341819;28;1667;-69
2022/04/28 00:06:18;;;;;;;12.35;8.23;;;;;;;19.25;37.89;100343.22;342048;28;1127;-70
2022/04/28 00:06:30;;;;;;;11.75;8.50;;;;;;;19.22;37.88;100343.41;341871;28;1672;-70
2022/04/28 00:06:42;;;;;;;10.98;8.55;;;;;;;19.19;38.11;100343.56;341580;28;1922;-70
2022/04/28 00:06:54;;;;;;;10.68;8.35;;;;;;;19.22;37.95;100348.69;342359;28;1020;-69
2022/04/28 00:07:06;;;;;;;10.20;8.23;;;;;;;19.20;37.84;100347.94;340470;29;1654;-69
2022/04/28 00:07:18;;;;;;;9.52;8.07;;;;;;;19.19;37.81;100344.41;341013;29;1153;-70
2022/04/28 00:07:30;;;;;;;10.57;8.38;;;;;;;19.19;37.89;100348.84;340081;29;1697;-69
2022/04/28 00:07:43;;;;;;;11.00;8.52;;;;;;;19.20;37.86;100347.94;340449;29;1923;-69
2022/04/28 00:07:55;;;;;;;10.70;8.48;;;;;;;19.23;37.68;100345.09;341258;29;1055;-69
2022/04/28 00:08:09;;;;;;;10.45;8.52;;;;;;;19.24;37.90;100346.81;340931;29;1170;-69
2022/04/28 00:08:21;;;;;;;11.13;8.40;;;;;;;19.26;37.88;100348.41;340884;29;1089;-70
2022/04/28 00:08:33;;;;;;;11.15;8.45;;;;;;;19.26;37.85;100343.16;340302;29;1750;-69
2022/04/28 00:08:45;;;;;;;11.13;8.35;;;;;;;19.29;37.80;100350.00;341612;29;1920;-69
2022/04/28 00:08:57;;;;;;;11.18;8.18;;;;;;;19.32;37.76;100344.59;341206;29;1335;-70
2022/04/28 00:09:09;;;;;;;11.32;8.20;;;;;;;19.32;37.82;100344.59;341024;28;1889;-70
2022/04/28 00:09:21;;;;;;;11.63;8.48;;;;;;;19.30;37.79;100346.47;342408;28;1185;-70
2022/04/28 00:09:33;;;;;;;10.63;8.30;;;;;;;19.30;37.80;100346.47;341216;28;1903;-70
2022/04/28 00:09:45;;;;;;;9.75;7.93;;;;;;;19.26;37.98;100342.31;341436;28;1920;-69
2022/04/28 00:09:57;;;;;;;8.98;7.38;;;;;;;19.26;37.81;100347.56;342386;28;1047;-70
2022/04/28 00:10:10;;;;;;;9.20;7.28;;;;;;;19.25;37.81;100349.34;342670;28;1070;-70
2022/04/28 00:10:23;;;;;;;9.50;7.53;;;;;;;19.23;37.96;100340.66;342275;28;1024;-69
2022/04/28 00:10:36;;;;;;;9.32;7.40;;;;;;;19.26;37.68;100347.56;340489;29;1654;-69
2022/04/28 00:10:49;;;;;;;9.13;7.22;;;;;;;19.22;37.92;100339.00;339941;28;1740;-69
2022/04/28 00:11:01;;;;;;;9.43;7.43;;;;;;;19.20;37.70;100340.03;339661;29;1024;-70
2022/04/28 00:11:13;;;;;;;9.10;7.43;;;;;;;19.20;37.84;100345.28;339648;29;1041;-69
2022/04/28 00:11:25;;;;;;;8.98;7.53;;;;;;;19.18;37.92;100342.75;339900;28;1907;-69
2022/04/28 00:11:37;;;;;;;9.55;8.02;;;;;;;19.19;37.72;100343.56;340702;28;1797;-69
2022/04/28 00:11:51;;;;;;;9.77;8.30;;;;;;;19.16;37.85;100350.72;340592;29;1140;-70
2022/04/28 00:12:03;;;;;;;9.88;8.15;;;;;;;19.16;37.90;100345.44;341278;29;904;-70
2022/04/28 00:12:16;;;;;;;10.10;8.20;;;;;;;19.15;37.88;100349.00;340724;29;1094;-69
2022/04/28 00:12:28;;;;;;;10.50;8.48;;;;;;;19.14;38.11;100347.31;340264;28;2752;-69
2022/04/28 00:12:40;;;;;;;10.32;8.43;;;;;;;19.14;38.10;100346.50;340707;28;1909;-69
2022/04/28 00:12:52;;;;;;;10.18;8.20;;;;;;;19.15;38.18;100349.00;340960;28;1999;-70
2022/04/28 00:13:06;;;;;;;10.40;8.20;;;;;;;19.12;37.92;100338.66;341418;28;1914;-69
2022/04/28 00:13:19;;;;;;;10.82;8.45;;;;;;;19.14;38.00;100347.31;341065;29;1906;-70
2022/04/28 00:13:31;;;;;;;10.18;8.38;;;;;;;19.13;38.08;100345.63;341028;28;1780;-69
2022/04/28 00:13:43;;;;;;;9.85;8.13;;;;;;;19.14;37.95;100346.50;341796;28;1894;-70
2022/04/28 00:13:55;;;;;;;9.95;8.07;;;;;;;19.12;38.09;100349.19;342528;28;1139;-68
2022/04/28 00:14:07;;;;;;;10.15;8.05;;;;;;;19.10;38.25;100343.16;341747;28;1627;-69
2022/04/28 00:14:20;;;;;;;9.77;8.02;;;;;;;19.06;38.12;100352.19;342457;28;1197;-69
2022/04/28 00:14:33;;;;;;;9.75;7.90;;;;;;;19.00;38.18;100343.78;341276;28;1947;-68
2022/04/28 00:14:45;;;;;;;9.60;7.97;;;;;;;18.99;38.17;100342.91;342221;28;1537;-70
2022/04/28 00:14:58;;;;;;;10.23;8.27;;;;;;;18.99;38.21;100344.72;342416;28;1161;-69
2022/04/28 00:15:10;;;;;;;11.00;8.15;;;;;;;18.99;38.21;100337.66;341224;28;1757;-69
2022/04/28 00:15:22;;;;;;;10.93;7.93;;;;;;;18.98;38.24;100346.50;342673;28;1086;-70
2022/04/28 00:15:35;;;;;;;10.45;7.72;;;;;;;18.99;38.13;100342.91;341732;28;1883;-69
2022/04/28 00:15:47;;;;;;;10.55;7.93;;;;;;;19.02;38.26;100347.19;342006;28;1957;-69
2022/04/28 00:15:59;;;;;;;10.75;7.90;;;;;;;19.02;38.17;100345.41;342362;28;1316;-69
2022/04/28 00:16:11;;;;;;;11.00;8.10;;;;;;;18.99;38.13;100348.19;342268;28;1204;-69
2022/04/28 00:16:23;;;;;;;10.32;8.20;;;;;;;19.02;37.94;100345.41;342144;28;1042;-70
2022/04/28 00:16:35;;;;;;;10.48;8.23;;;;;;;19.01;38.03;100341.03;342668;28;1513;-70
2022/04/28 00:16:48;;;;;;;12.50;8.38;;;;;;;18.99;38.00;100345.56;342288;28;1316;-70
2022/04/28 00:17:00;;;;;;;12.32;8.18;;;;;;;19.01;38.24;100343.69;342461;28;1237;-69
2022/04/28 00:17:12;;;;;;;11.73;8.30;;;;;;;19.03;38.00;100346.25;342261;28;1881;-70
2022/04/28 00:17:24;;;;;;;10.13;8.05;;;;;;;19.05;37.85;100345.19;342266;28;1112;-70
2022/04/28 00:17:36;;;;;;;10.65;8.13;;;;;;;19.05;38.10;100349.63;342325;28;1105;-70
2022/04/28 00:17:48;;;;;;;10.45;8.25;;;;;;;19.04;38.07;100346.16;342000;28;1268;-68
2022/04/28 00:18:01;;;;;;;11.30;8.52;;;;;;;19.03;38.38;100347.06;340512;28;1999;-69
2022/04/28 00:18:13;;;;;;;11.63;8.57;;;;;;;19.01;38.13;100341.03;341078;29;2135;-69
2022/04/28 00:18:25;;;;;;;11.40;8.63;;;;;;;19.04;38.42;100353.22;341012;29;1603;-69
2022/04/28 00:18:37;;;;;;;10.55;8.30;;;;;;;19.01;38.25;100345.47;340416;28;1751;-69
2022/04/28 00:18:49;;;;;;;10.25;8.25;;;;;;;19.00;38.10;100343.78;340294;28;1939;-69
2022/04/28 00:19:02;;;;;;;10.90;8.60;;;;;;;18.99;37.97;100348.19;340899;29;1161;-69
2022/04/28 00:19:14;;;;;;;10.68;8.30;;;;;;;18.96;38.02;100337.84;340899;28;1893;-70
2022/04/28 00:19:26;;;;;;;10.13;8.05;;;;;;;18.99;38.08;100350.81;340685;28;2038;-69
2022/04/28 00:19:38;;;;;;;9.93;8.00;;;;;;;19.03;38.02;100349.72;340795;29;1795;-69
2022/04/28 00:19:50;;;;;;;10.68;7.90;;;;;;;18.98;37.87;100349.13;340720;29;1048;-69
2022/04/28 00:20:03;;;;;;;11.07;7.85;;;;;;;19.02;38.06;100344.56;341541;28;1071;-69
2022/04/28 00:20:15;;;;;;;11.40;8.32;;;;;;;19.00;38.05;100342.00;341977;28;1186;-69
2022/04/28 00:20:31;;;;;;;11.02;8.55;;;;;;;19.00;37.89;100344.63;340317;28;1700;-69
2022/04/28 00:20:43;;;;;;;10.23;8.18;;;;;;;19.02;38.11;100345.41;340035;29;1944;-69
2022/04/28 00:20:55;;;;;;;10.07;7.80;;;;;;;19.05;37.97;100353.09;341026;29;1027;-70
2022/04/28 00:21:07;;;;;;;10.25;7.80;;;;;;;19.11;38.16;100357.19;342173;28;1075;-69
2022/04/28 00:21:20;;;;;;;10.80;8.13;;;;;;;19.12;37.92;100354.47;341044;29;1595;-69
2022/04/28 00:21:32;;;;;;;10.48;8.10;;;;;;;19.15;38.04;100349.00;339405;28;1751;-69
2022/04/28 00:21:44;;;;;;;10.73;8.30;;;;;;;19.19;38.19;100356.75;341081;29;1703;-70
2022/04/28 00:21:56;;;;;;;10.88;8.35;;;;;;;19.18;37.81;100358.56;341179;29;1171;-70
2022/04/28 00:22:08;;;;;;;10.73;8.30;;;;;;;19.19;37.90;100348.84;341018;29;1396;-69
2022/04/28 00:22:21;;;;;;;10.25;8.07;;;;;;;19.15;37.94;100348.16;341134;29;1182;-69
2022/04/28 00:22:34;;;;;;;10.18;8.15;;;;;;;19.13;38.05;100350.88;340264;29;2007;-69
2022/04/28 00:22:46;;;;;;;10.25;8.02;;;;;;;19.12;38.25;100354.47;340622;29;1968;-69
2022/04/28 00:22:58;;;;;;;11.30;7.55;;;;;;;19.13;37.91;100356.16;339743;28;1819;-69
2022/04/28 00:23:10;;;;;;;11.32;7.38;;;;;;;19.10;37.87;100351.06;339788;29;2026;-69
2022/04/28 00:23:22;;;;;;;11.77;7.50;;;;;;;19.10;37.95;100350.22;341607;28;1051;-70
2022/04/28 00:23:34;;;;;;;10.35;7.78;;;;;;;19.11;37.78;100352.75;341543;28;1766;-69
2022/04/28 00:23:46;;;;;;;9.88;7.68;;;;;;;19.14;37.62;100351.75;342070;28;1948;-69
2022/04/28 00:23:59;;;;;;;9.48;7.70;;;;;;;19.14;37.82;100352.59;341789;28;1223;-68
2022/04/28 00:24:11;;;;;;;10.02;7.90;;;;;;;19.15;37.50;100356.91;341588;28;1596;-69
2022/04/28 00:24:23;;;;;;;10.68;8.20;;;;;;;19.15;37.57;100348.16;342655;28;1150;-70
2022/04/28 00:24:35;;;;;;;9.57;7.60;;;;;;;19.14;37.73;100352.59;341770;28;1756;-69
2022/04/28 00:24:47;;;;;;;9.57;7.78;;;;;;;19.12;37.87;100359.75;342167;28;2070;-69
2022/04/28 00:24:59;;;;;;;9.60;7.68;;;;;;;19.15;37.67;100354.28;341001;28;1750;-69
2022/04/28 00:25:11;;;;;;;9.48;7.50;;;;;;;19.13;37.80;100356.16;340928;29;1080;-70
2022/04/28 00:25:23;;;;;;;9.57;7.35;;;;;;;19.14;37.69;100352.59;341024;29;1060;-70
2022/04/28 00:25:35;;;;;;;9.93;7.40;;;;;;;19.18;37.93;100357.72;341491;28;1577;-69
2022/04/28 00:25:47;;;;;;;10.98;7.72;;;;;;;19.16;38.15;100350.72;342106;28;1817;-69
2022/04/28 00:25:59;;;;;;;10.98;7.80;;;;;;;19.16;37.46;100358.63;341470;28;1626;-70
2022/04/28 00:26:12;;;;;;;10.15;7.90;;;;;;;19.16;37.58;100355.16;341446;28;1885;-69
2022/04/28 00:26:24;;;;;;;10.43;7.95;;;;;;;19.15;37.92;100351.66;342534;28;1217;-69
2022/04/28 00:26:36;;;;;;;10.55;8.15;;;;;;;19.15;37.77;100356.06;341707;28;2564;-69
2022/04/28 00:26:48;;;;;;;9.07;7.80;;;;;;;19.11;37.77;100350.13;342029;28;1905;-70
2022/04/28 00:27:00;;;;;;;9.48;7.57;;;;;;;19.09;37.98;100351.16;342485;28;1197;-70
2022/04/28 00:27:12;;;;;;;9.38;7.60;;;;;;;19.06;37.95;100352.19;342565;28;1208;-70
2022/04/28 00:27:24;;;;;;;10.05;7.90;;;;;;;19.08;37.97;100352.09;342226;28;1069;-70
2022/04/28 00:27:37;;;;;;;9.68;7.55;;;;;;;19.06;37.97;100352.19;341643;28;1628;-69
2022/04/28 00:27:54;;;;;;;9.98;7.65;;;;;;;19.03;38.23;100354.97;342009;28;1273;-69
2022/04/28 00:28:06;;;;;;;9.68;7.68;;;;;;;19.00;38.14;100355.16;341797;28;1722;-70
2022/04/28 00:28:20;;;;;;;9.48;7.35;;;;;;;18.96;37.99;100354.50;341201;28;1444;-69
2022/04/28 00:28:32;;;;;;;9.80;7.70;;;;;;;18.95;38.08;100351.94;341221;28;1662;-69
2022/04/28 00:28:44;;;;;;;9.10;7.55;;;;;;;18.91;38.17;100350.41;342265;28;1914;-69
2022/04/28 00:28:56;;;;;;;8.63;7.43;;;;;;;18.88;38.25;100350.59;342242;28;1036;-69
2022/04/28 00:29:08;;;;;;;9.32;7.78;;;;;;;18.88;38.16;100353.22;342104;28;1088;-70
2022/04/28 00:29:21;;;;;;;9.75;8.10;;;;;;;18.88;38.13;100351.44;342325;28;1045;-69
2022/04/28 00:29:33;;;;;;;9.57;7.68;;;;;;;18.86;38.00;100347.19;341678;28;1783;-69
2022/04/28 00:29:45;;;;;;;11.05;7.47;;;;;;;18.85;38.16;100351.59;341902;28;1971;-69
2022/04/28 00:29:57;;;;;;;12.68;7.68;;;;;;;18.83;38.18;100347.34;342261;28;1054;-70
2022/04/28 00:30:10;;;;;;;12.80;7.80;;;;;;;18.81;38.20;100349.22;342499;28;1100;-69
2022/04/28 00:30:22;;;;;;;10.90;7.45;;;;;;;18.77;38.22;100354.66;342454;28;1095;-70
2022/04/28 00:30:34;;;;;;;10.82;7.53;;;;;;;18.75;38.20;100345.97;341271;28;1720;-69
2022/04/28 00:30:46;;;;;;;10.80;7.65;;;;;;;18.74;38.26;100344.28;340870;29;2068;-69
2022/04/28 00:30:59;;;;;;;9.93;8.02;;;;;;;18.72;38.25;100346.13;340760;29;1361;-69
2022/04/28 00:31:11;;;;;;;9.55;7.60;;;;;;;18.72;38.21;100350.56;340190;29;1825;-69
2022/04/28 00:31:23;;;;;;;9.57;7.55;;;;;;;18.69;38.34;100343.69;341093;29;993;-70
2022/04/28 00:31:35;;;;;;;10.25;7.53;;;;;;;18.65;38.37;100344.78;340957;29;1055;-69
2022/04/28 00:31:48;;;;;;;10.00;7.35;;;;;;;18.61;38.62;100343.22;340266;29;1933;-69
2022/04/28 00:32:00;;;;;;;9.73;7.28;;;;;;;18.60;38.67;100346.81;339365;29;1039;-69
2022/04/28 00:32:12;;;;;;;10.20;7.50;;;;;;;18.59;38.58;100352.16;340216;29;1531;-70
2022/04/28 00:32:24;;;;;;;10.65;7.72;;;;;;;18.59;38.54;100350.38;339669;29;1134;-69
2022/04/28 00:32:36;;;;;;;10.50;7.53;;;;;;;18.55;38.66;100344.44;340516;29;1534;-69
2022/04/28 00:32:48;;;;;;;10.25;7.38;;;;;;;18.55;38.42;100348.84;340984;29;1021;-69
2022/04/28 00:33:01;;;;;;;9.27;7.40;;;;;;;18.54;38.37;100348.00;341079;28;1950;-69
2022/04/28 00:33:13;;;;;;;9.20;7.63;;;;;;;18.54;38.67;100341.88;342200;28;1817;-69
2022/04/28 00:33:27;;;;;;;8.57;7.30;;;;;;;18.54;38.64;100353.25;341801;28;1670;-69
2022/04/28 00:33:41;;;;;;;9.88;7.40;;;;;;;18.57;38.71;100352.22;342298;28;1741;-70
2022/04/28 00:33:55;;;;;;;12.00;7.53;;;;;;;18.61;38.42;100342.41;341001;29;1293;-70
2022/04/28 00:34:07;;;;;;;11.85;7.53;;;;;;;18.61;38.50;100343.22;340940;28;1636;-69
2022/04/28 00:34:19;;;;;;;10.27;7.50;;;;;;;18.63;38.32;100346.63;342416;28;1032;-69
2022/04/28 00:34:31;;;;;;;9.45;7.45;;;;;;;18.64;38.48;100347.50;341694;28;1695;-69
2022/04/28 00:34:43;;;;;;;9.93;7.70;;;;;;;18.66;38.36;100341.22;341435;28;1759;-69
2022/04/28 00:34:55;;;;;;;10.60;8.07;;;;;;;18.67;38.37;100347.31;342667;28;1163;-69
2022/04/28 00:35:08;;;;;;;10.52;7.97;;;;;;;18.71;38.26;100348.84;342485;28;1104;-70
2022/04/28 00:35:20;;;;;;;10.32;7.75;;;;;;;18.72;38.34;100346.13;341803;28;1910;-69
2022/04/28 00:35:32;;;;;;;10.00;7.75;;;;;;;18.72;38.31;100345.28;341553;28;1668;-68
2022/04/28 00:35:45;;;;;;;11.10;8.20;;;;;;;18.75;38.30;100351.25;342102;28;1919;-69
2022/04/28 00:35:57;;;;;;;12.50;8.48;;;;;;;18.74;38.45;100349.53;342186;28;1310;-69
2022/04/28 00:36:10;;;;;;;12.55;8.40;;;;;;;18.74;38.39;100343.44;342226;28;1047;-69
2022/04/28 00:36:22;;;;;;;11.05;8.48;;;;;;;18.73;38.49;100347.84;342264;28;1031;-70
2022/04/28 00:36:34;;;;;;;10.52;8.45;;;;;;;18.74;38.33;100344.28;341200;28;1769;-69
2022/04/28 00:36:46;;;;;;;10.82;8.38;;;;;;;18.77;38.28;100349.38;342114;28;1972;-70
2022/04/28 00:36:58;;;;;;;11.52;8.23;;;;;;;18.76;38.40;100346.81;341340;28;1898;-70
2022/04/28 00:37:10;;;;;;;12.27;8.43;;;;;;;18.77;38.47;100344.13;341562;28;1875;-69
2022/04/28 00:37:22;;;;;;;14.38;8.95;;;;;;;18.79;38.57;100348.44;342235;28;1231;-69
2022/04/28 00:37:34;;;;;;;13.68;8.95;;;;;;;18.79;38.40;100348.44;341922;28;1930;-69
2022/04/28 00:37:46;;;;;;;12.30;8.55;;;;;;;18.80;38.61;100347.53;341989;28;1712;-69
2022/04/28 00:37:58;;;;;;;11.02;8.00;;;;;;;18.76;38.49;100347.66;342467;28;1185;-69
2022/04/28 00:38:11;;;;;;;12.30;8.07;;;;;;;18.78;38.49;100339.69;341971;28;1048;-69
2022/04/28 00:38:23;;;;;;;11.85;8.40;;;;;;;18.78;38.39;100344.94;342405;28;1059;-69
2022/04/28 00:38:35;;;;;;;11.68;8.15;;;;;;;18.76;38.52;100345.03;341523;28;2011;-70
2022/04/28 00:38:48;;;;;;;9.90;8.00;;;;;;;18.74;38.49;100339.00;342131;28;1940;-69
2022/04/28 00:38:59;;;;;;;10.27;8.05;;;;;;;18.72;38.48;100346.13;342196;28;1057;-69
2022/04/28 00:39:11;;;;;;;10.05;8.20;;;;;;;18.72;38.55;100348.78;342367;28;1386;-68
2022/04/28 00:39:23;;;;;;;10.35;8.43;;;;;;;18.74;38.41;100344.28;342147;28;1170;-69
2022/04/28 00:39:37;;;;;;;10.77;8.68;;;;;;;18.73;38.33;100342.59;341469;28;1894;-68
2022/04/28 00:39:50;;;;;;;12.13;8.63;;;;;;;18.76;38.30;100346.81;342125;28;1102;-69
2022/04/28 00:40:03;;;;;;;13.35;8.73;;;;;;;18.75;38.71;100348.63;343084;28;1539;-70
2022/04/28 00:40:15;;;;;;;12.40;8.73;;;;;;;18.76;38.44;100342.41;341914;28;1764;-69
2022/04/28 00:40:27;;;;;;;11.05;8.70;;;;;;;18.79;38.36;100346.66;341871;28;1486;-69
2022/04/28 00:40:39;;;;;;;12.07;8.85;;;;;;;18.79;38.11;100345.78;341144;28;1665;-69
2022/04/28 00:40:51;;;;;;;13.63;9.18;;;;;;;18.75;38.37;100348.63;341638;28;1821;-69
2022/04/28 00:41:03;;;;;;;12.30;8.60;;;;;;;18.77;38.51;100348.50;342417;28;1024;-69
2022/04/28 00:41:15;;;;;;;10.30;8.50;;;;;;;18.77;38.26;100345.88;342355;28;1713;-69
2022/04/28 00:41:27;;;;;;;10.77;8.20;;;;;;;18.74;38.41;100346.91;342370;28;1281;-70
2022/04/28 00:41:39;;;;;;;10.85;8.07;;;;;;;18.72;38.61;100343.50;342355;28;858;-69
2022/04/28 00:41:51;;;;;;;10.88;8.10;;;;;;;18.70;38.49;100342.75;342224;28;1055;-69
2022/04/28 00:42:12;;;;;;;10.90;8.07;;;;;;;18.70;38.51;100347.16;342198;28;1095;-69
2022/04/28 00:42:24;;;;;;;11.07;7.85;;;;;;;18.72;38.78;100345.28;341427;28;1904;-69
2022/04/28 00:42:36;;;;;;;10.25;7.93;;;;;;;18.69;38.65;100345.44;342396;28;1553;-69
2022/04/28 00:42:48;;;;;;;10.13;7.97;;;;;;;18.68;38.51;100344.59;342314;28;1036;-69
2022/04/28 00:43:33;;;;;;;11.68;8.30;;;;;;;18.68;38.71;100344.59;341339;28;1681;-69
2022/04/28 00:43:49;;;;;;;10.65;8.38;;;;;;;18.66;38.55;100351.75;342260;28;1024;-68
2022/04/28 00:44:01;;;;;;;10.55;8.10;;;;;;;18.23;38.84;100348.81;341950;28;1054;-70
2022/04/28 00:44:13;;;;;;;10.35;7.97;;;;;;;17.98;39.66;100353.66;341862;28;1878;-69
2022/04/28 00:44:25;;;;;;;10.45;8.20;;;;;;;17.92;39.68;100355.66;341381;28;1745;-69
2022/04/28 00:44:38;;;;;;;11.02;8.43;;;;;;;17.86;39.89;100353.34;342379;28;1044;-69
2022/04/28 00:44:50;;;;;;;11.30;8.63;;;;;;;18.01;39.60;100358.75;340918;29;1094;-69
2022/04/28 00:45:03;;;;;;;10.73;8.55;;;;;;;18.09;39.48;100349.53;340734;29;1078;-69
2022/04/28 00:45:15;;;;;;;10.82;8.30;;;;;;;18.18;39.18;100350.81;341525;29;1020;-70
2022/04/28 00:45:27;;;;;;;11.70;8.82;;;;;;;18.18;39.33;100348.19;340576;28;1755;-69
2022/04/28 00:45:39;;;;;;;11.65;8.93;;;;;;;18.25;39.03;100352.22;341297;28;1913;-70
2022/04/28 00:45:51;;;;;;;12.30;8.93;;;;;;;18.12;39.20;100356.41;341033;29;900;-69
2022/04/28 00:46:04;;;;;;;11.80;8.63;;;;;;;18.21;39.25;100353.31;341063;29;1171;-69
2022/04/28 00:46:16;;;;;;;10.45;8.43;;;;;;;18.20;39.02;100353.38;341115;29;1082;-69
2022/04/28 00:46:28;;;;;;;11.48;8.68;;;;;;;18.16;38.97;100352.69;340788;29;1357;-69
2022/04/28 00:46:42;;;;;;;13.55;8.85;;;;;;;18.14;39.10;100355.41;341140;29;1011;-69
2022/04/28 00:46:54;;;;;;;13.18;8.57;;;;;;;18.10;39.07;100353.84;341166;28;2110;-68
2022/04/28 00:47:07;;;;;;;11.45;8.63;;;;;;;18.10;39.09;100358.28;342537;28;1127;-69
2022/04/28 00:47:19;;;;;;;11.35;8.73;;;;;;;18.04;39.17;100358.59;342439;28;1019;-69
2022/04/28 00:50:38;;;;;;;13.50;8.68;;;;;;;16.77;40.42;100356.03;342427;28;1450;-70
2022/04/28 00:50:51;;;;;;;12.98;9.07;;;;;;;16.92;40.42;100357.13;341816;28;1112;-69
2022/04/28 00:51:05;;;;;;;12.07;9.30;;;;;;;16.90;40.25;100349.34;342530;28;1014;-69
2022/04/28 00:51:17;;;;;;;13.13;9.40;;;;;;;16.81;40.11;100354.13;342465;28;1066;-69
2022/04/28 00:51:37;;;;;;;13.73;9.30;;;;;;;16.48;40.97;100358.25;341785;28;1986;-69
2022/04/28 00:51:49;;;;;;;12.98;9.05;;;;;;;16.58;40.58;100358.69;342009;28;1667;-70
2022/04/28 00:52:02;;;;;;;12.48;9.30;;;;;;;16.62;40.71;100354.13;342398;28;1117;-70
2022/04/28 00:52:18;;;;;;;12.98;9.57;;;;;;;16.72;40.69;100350.16;342310;28;1237;-69
2022/04/28 00:52:33;;;;;;;12.75;9.27;;;;;;;16.58;40.88;100361.31;341686;28;1736;-70
2022/04/28 00:52:45;;;;;;;12.48;9.10;;;;;;;16.60;40.99;100356.84;342051;28;1888;-70
2022/04/28 00:52:58;;;;;;;12.63;9.27;;;;;;;16.36;41.36;100354.41;342271;28;1047;-69
2022/04/28 00:53:13;;;;;;;11.95;9.07;;;;;;;16.49;42.04;100359.09;342758;28;1105;-70
2022/04/28 00:53:28;;;;;;;12.43;9.00;;;;;;;16.61;42.42;100353.28;341868;28;1597;-70
2022/04/28 00:53:48;;;;;;;13.35;9.30;;;;;;;16.84;42.00;100348.75;341524;28;1769;-70
2022/04/28 00:54:02;;;;;;;13.50;9.38;;;;;;;17.03;41.24;100352.22;341021;28;1225;-69
2022/04/28 00:54:14;;;;;;;14.02;9.60;;;;;;;17.16;41.22;100350.69;340981;28;1621;-69
2022/04/28 00:54:28;;;;;;;13.05;9.25;;;;;;;17.29;40.91;100347.47;341975;28;1279;-69
2022/04/28 00:54:41;;;;;;;12.85;9.13;;;;;;;17.33;40.96;100354.28;342410;28;1176;-69
2022/04/28 00:54:55;;;;;;;13.65;9.27;;;;;;;17.43;40.75;100354.69;342217;28;1028;-69
2022/04/28 00:55:07;;;;;;;12.68;9.43;;;;;;;17.51;40.53;100355.13;342425;28;1053;-69
2022/04/28 00:55:19;;;;;;;11.43;9.20;;;;;;;17.52;40.68;100351.56;341225;28;1625;-69
2022/04/28 00:55:31;;;;;;;12.25;9.10;;;;;;;17.55;40.62;100352.28;340740;28;1314;-69
2022/04/28 00:55:43;;;;;;;12.10;9.00;;;;;;;17.65;40.57;100351.81;341523;29;1036;-70
2022/04/28 00:55:58;;;;;;;12.32;9.00;;;;;;;17.74;40.33;100353.97;340743;29;1269;-69
2022/04/28 00:56:10;;;;;;;12.38;8.90;;;;;;;17.80;40.30;100353.66;340653;29;1154;-69
2022/04/28 00:56:22;;;;;;;12.25;8.65;;;;;;;17.86;39.98;100350.72;340553;29;1213;-69
2022/04/28 00:56:35;;;;;;;10.95;8.35;;;;;;;17.91;40.02;100348.72;340889;29;1411;-69
2022/04/28 00:56:47;;;;;;;10.27;8.55;;;;;;;17.96;40.08;100351.09;340940;29;1902;-69
2022/04/28 00:57:21;;;;;;;11.48;8.50;;;;;;;17.96;39.94;100346.69;340005;28;1453;-71
2022/04/28 00:57:33;;;;;;;11.30;8.55;;;;;;;17.98;39.75;100354.50;343304;28;1300;-71
2022/04/28 00:57:46;;;;;;;11.18;8.75;;;;;;;18.00;40.05;100350.00;343859;28;1104;-72
2022/04/28 00:57:59;;;;;;;11.63;8.65;;;;;;;18.01;39.95;100351.72;343490;28;1495;-72
2022/04/28 00:58:11;;;;;;;11.23;8.57;;;;;;;17.99;39.92;100357.97;343260;28;1226;-72
2022/04/28 00:58:25;;;;;;;11.98;9.07;;;;;;;17.78;41.04;100347.63;341070;28;3619;-73
2022/04/28 00:58:40;;;;;;;12.63;9.30;;;;;;;17.21;41.81;100353.09;343324;28;3061;-72
2022/04/28 00:58:55;;;;;;;12.75;8.95;;;;;;;16.75;43.12;100350.84;343674;28;1289;-73
2022/04/28 00:59:07;;;;;;;12.40;9.13;;;;;;;17.03;42.44;100354.84;343224;28;1177;-70
2022/04/28 00:59:19;;;;;;;12.38;9.10;;;;;;;17.23;41.75;100358.28;344568;28;1070;-70
2022/04/28 00:59:32;;;;;;;12.40;8.90;;;;;;;17.21;41.76;100349.63;343480;28;1696;-70
2022/04/28 00:59:46;;;;;;;12.23;9.02;;;;;;;16.78;42.59;100361.22;343592;28;1795;-70
2022/04/28 00:59:57;;;;;;;11.45;9.13;;;;;;;16.67;42.99;100352.16;344640;28;1174;-70
2022/04/28 01:00:11;;;;;;;12.95;9.25;;;;;;;16.67;42.71;100352.16;344710;28;1206;-70
2022/04/28 01:00:23;;;;;;;13.45;9.27;;;;;;;16.73;42.67;100349.25;344941;28;1074;-70
2022/04/28 01:00:37;;;;;;;13.13;9.55;;;;;;;16.92;42.29;100357.13;343493;28;2278;-70
2022/04/28 01:00:53;;;;;;;12.73;9.27;;;;;;;16.88;42.26;100352.94;344484;28;1012;-70
2022/04/28 01:01:05;;;;;;;13.43;9.23;;;;;;;17.01;41.94;100350.59;344839;28;1057;-70
2022/04/28 01:01:18;;;;;;;13.80;9.50;;;;;;;16.97;42.08;100357.75;344726;28;1047;-70
2022/04/28 01:01:30;;;;;;;14.13;9.73;;;;;;;17.09;41.68;100349.28;343464;28;1652;-70
2022/04/28 01:01:43;;;;;;;13.35;9.68;;;;;;;17.09;41.87;100348.44;343279;28;1144;-70
2022/04/28 01:01:55;;;;;;;12.85;9.50;;;;;;;17.15;41.35;100343.72;342817;28;2004;-70
2022/04/28 01:02:10;;;;;;;14.40;9.68;;;;;;;17.27;41.01;100346.69;343415;28;1919;-70
2022/04/28 01:02:22;;;;;;;14.15;9.77;;;;;;;17.16;40.64;100350.69;343352;28;1164;-70
2022/04/28 01:02:35;;;;;;;13.02;9.80;;;;;;;17.12;40.47;100349.16;342865;28;1599;-70
2022/04/28 01:02:48;;;;;;;13.13;9.88;;;;;;;16.83;40.72;100347.06;343729;28;1918;-70
2022/04/28 01:03:00;;;;;;;12.65;9.65;;;;;;;16.83;40.69;100347.91;343591;28;1199;-70
2022/04/28 01:03:12;;;;;;;11.82;9.35;;;;;;;16.90;40.60;100343.22;342034;28;1076;-70
2022/04/28 01:03:30;;;;;;;11.82;9.43;;;;;;;16.92;40.60;100351.88;341877;28;1301;-70